sensor_id;sensor_type;location;lat;lon;timestamp;P1;durP1;ratioP1;P2;durP2;ratioP2
59854;SDS011;45732;52.850;6.896;2023-06-14T04:28:48;6.72;;;3.15;;
59854;SDS011;45732;52.850;6.896;2023-06-14T04:31:14;9.77;;;3.30;;
59854;SDS011;45732;52.850;6.896;2023-06-14T04:33:41;8.05;;;3.38;;
59854;SDS011;45732;52.850;6.896;2023-06-14T04:36:12;9.07;;;3.55;;
59854;SDS011;45732;52.850;6.896;2023-06-14T04:38:38;7.93;;;3.22;;
59854;SDS011;45732;52.850;6.896;2023-06-14T04:41:04;6.82;;;3.90;;
59854;SDS011;45732;52.850;6.896;2023-06-14T04:43:31;7.60;;;3.67;;
59854;SDS011;45732;52.850;6.896;2023-06-14T04:46:01;7.30;;;3.67;;
59854;SDS011;45732;52.850;6.896;2023-06-14T04:48:28;7.43;;;3.80;;
59854;SDS011;45732;52.850;6.896;2023-06-14T04:50:53;7.22;;;3.50;;
59854;SDS011;45732;52.850;6.896;2023-06-14T04:53:20;8.57;;;3.50;;
59854;SDS011;45732;52.850;6.896;2023-06-14T04:55:47;7.20;;;3.42;;
59854;SDS011;45732;52.850;6.896;2023-06-14T04:58:13;7.20;;;3.22;;
59854;SDS011;45732;52.850;6.896;2023-06-14T05:00:39;8.23;;;3.60;;
59854;SDS011;45732;52.850;6.896;2023-06-14T05:03:07;9.02;;;3.53;;
59854;SDS011;45732;52.850;6.896;2023-06-14T05:05:33;8.55;;;3.85;;
59854;SDS011;45732;52.850;6.896;2023-06-14T05:07:59;9.65;;;3.78;;
59854;SDS011;45732;52.850;6.896;2023-06-14T05:10:25;5.75;;;3.08;;
59854;SDS011;45732;52.850;6.896;2023-06-14T05:12:51;8.70;;;3.80;;
59854;SDS011;45732;52.850;6.896;2023-06-14T05:15:17;10.05;;;3.88;;
59854;SDS011;45732;52.850;6.896;2023-06-14T05:17:45;9.15;;;3.42;;
59854;SDS011;45732;52.850;6.896;2023-06-14T05:20:20;7.85;;;3.65;;
59854;SDS011;45732;52.850;6.896;2023-06-14T05:22:48;10.60;;;4.00;;
59854;SDS011;45732;52.850;6.896;2023-06-14T05:25:16;7.57;;;3.70;;
59854;SDS011;45732;52.850;6.896;2023-06-14T05:27:42;8.27;;;3.58;;
59854;SDS011;45732;52.850;6.896;2023-06-14T05:30:08;8.75;;;3.25;;
59854;SDS011;45732;52.850;6.896;2023-06-14T05:32:34;11.23;;;3.75;;
59854;SDS011;45732;52.850;6.896;2023-06-14T05:35:00;6.70;;;3.40;;
59854;SDS011;45732;52.850;6.896;2023-06-14T05:37:26;8.68;;;4.20;;
59854;SDS011;45732;52.850;6.896;2023-06-14T05:39:52;8.43;;;3.40;;
59854;SDS011;45732;52.850;6.896;2023-06-14T05:42:17;8.20;;;3.63;;
59854;SDS011;45732;52.850;6.896;2023-06-14T05:44:43;7.60;;;3.75;;
59854;SDS011;45732;52.850;6.896;2023-06-14T05:47:09;9.73;;;3.67;;
59854;SDS011;45732;52.850;6.896;2023-06-14T05:49:34;8.52;;;3.65;;
59854;SDS011;45732;52.850;6.896;2023-06-14T05:52:00;9.00;;;3.60;;
59854;SDS011;45732;52.850;6.896;2023-06-14T05:54:26;10.38;;;3.85;;
59854;SDS011;45732;52.850;6.896;2023-06-14T05:56:51;8.95;;;3.60;;
59854;SDS011;45732;52.850;6.896;2023-06-14T05:59:17;6.60;;;3.38;;
59854;SDS011;45732;52.850;6.896;2023-06-14T06:01:43;9.35;;;3.75;;
59854;SDS011;45732;52.850;6.896;2023-06-14T06:04:08;8.95;;;3.30;;
59854;SDS011;45732;52.850;6.896;2023-06-14T06:06:34;6.13;;;3.13;;
59854;SDS011;45732;52.850;6.896;2023-06-14T06:09:00;7.30;;;3.25;;
59854;SDS011;45732;52.850;6.896;2023-06-14T06:11:27;7.47;;;3.17;;
59854;SDS011;45732;52.850;6.896;2023-06-14T06:13:52;7.32;;;3.42;;
59854;SDS011;45732;52.850;6.896;2023-06-14T06:16:18;5.90;;;3.03;;
59854;SDS011;45732;52.850;6.896;2023-06-14T06:18:44;6.80;;;3.53;;
59854;SDS011;45732;52.850;6.896;2023-06-14T06:21:09;7.35;;;3.03;;
59854;SDS011;45732;52.850;6.896;2023-06-14T06:23:35;10.52;;;3.35;;
59854;SDS011;45732;52.850;6.896;2023-06-14T06:26:01;5.85;;;2.95;;
59854;SDS011;45732;52.850;6.896;2023-06-14T06:28:27;10.63;;;2.90;;
59854;SDS011;45732;52.850;6.896;2023-06-14T06:30:53;6.72;;;2.90;;
59854;SDS011;45732;52.850;6.896;2023-06-14T06:33:19;11.02;;;3.13;;
59854;SDS011;45732;52.850;6.896;2023-06-14T06:35:45;6.53;;;2.60;;
59854;SDS011;45732;52.850;6.896;2023-06-14T06:38:11;6.10;;;2.70;;
59854;SDS011;45732;52.850;6.896;2023-06-14T06:40:36;6.63;;;2.70;;
59854;SDS011;45732;52.850;6.896;2023-06-14T06:43:02;6.70;;;2.80;;
59854;SDS011;45732;52.850;6.896;2023-06-14T06:45:28;7.10;;;2.80;;
59854;SDS011;45732;52.850;6.896;2023-06-14T06:47:54;5.97;;;2.63;;
59854;SDS011;45732;52.850;6.896;2023-06-14T06:50:20;6.85;;;2.60;;
59854;SDS011;45732;52.850;6.896;2023-06-14T06:52:48;6.68;;;2.63;;
59854;SDS011;45732;52.850;6.896;2023-06-14T06:55:14;11.45;;;2.75;;
59854;SDS011;45732;52.850;6.896;2023-06-14T06:57:40;8.13;;;2.83;;
59854;SDS011;45732;52.850;6.896;2023-06-14T07:00:06;7.88;;;2.70;;
59854;SDS011;45732;52.850;6.896;2023-06-14T07:02:35;5.80;;;2.75;;
59854;SDS011;45732;52.850;6.896;2023-06-14T07:05:02;6.88;;;2.53;;
59854;SDS011;45732;52.850;6.896;2023-06-14T07:07:27;6.72;;;2.88;;
59854;SDS011;45732;52.850;6.896;2023-06-14T07:09:53;9.10;;;2.92;;
59854;SDS011;45732;52.850;6.896;2023-06-14T07:12:19;7.93;;;2.70;;
59854;SDS011;45732;52.850;6.896;2023-06-14T07:14:44;4.25;;;2.78;;
59854;SDS011;45732;52.850;6.896;2023-06-14T07:17:10;5.82;;;2.60;;
59854;SDS011;45732;52.850;6.896;2023-06-14T07:19:36;7.32;;;2.80;;
59854;SDS011;45732;52.850;6.896;2023-06-14T07:22:02;9.75;;;2.67;;
59854;SDS011;45732;52.850;6.896;2023-06-14T07:24:27;6.75;;;2.42;;
59854;SDS011;45732;52.850;6.896;2023-06-14T07:26:53;6.68;;;2.50;;
59854;SDS011;45732;52.850;6.896;2023-06-14T07:29:20;8.10;;;2.53;;
59854;SDS011;45732;52.850;6.896;2023-06-14T07:31:46;4.93;;;2.65;;
59854;SDS011;45732;52.850;6.896;2023-06-14T07:34:12;8.90;;;2.30;;
59854;SDS011;45732;52.850;6.896;2023-06-14T07:36:38;4.40;;;2.28;;
59854;SDS011;45732;52.850;6.896;2023-06-14T07:39:04;6.30;;;2.13;;
59854;SDS011;45732;52.850;6.896;2023-06-14T07:41:31;6.38;;;2.30;;
59854;SDS011;45732;52.850;6.896;2023-06-14T07:43:56;5.57;;;2.10;;
59854;SDS011;45732;52.850;6.896;2023-06-14T07:46:22;5.93;;;2.47;;
59854;SDS011;45732;52.850;6.896;2023-06-14T07:48:48;13.50;;;2.55;;
59854;SDS011;45732;52.850;6.896;2023-06-14T07:51:14;8.13;;;2.25;;
59854;SDS011;45732;52.850;6.896;2023-06-14T07:53:39;7.15;;;2.45;;
59854;SDS011;45732;52.850;6.896;2023-06-14T07:56:06;4.38;;;2.20;;
59854;SDS011;45732;52.850;6.896;2023-06-14T07:58:31;5.50;;;2.08;;
59854;SDS011;45732;52.850;6.896;2023-06-14T08:00:57;7.30;;;2.10;;
59854;SDS011;45732;52.850;6.896;2023-06-14T08:03:23;6.13;;;2.08;;
59854;SDS011;45732;52.850;6.896;2023-06-14T08:05:49;5.40;;;2.10;;
59854;SDS011;45732;52.850;6.896;2023-06-14T08:08:15;3.53;;;1.88;;
59854;SDS011;45732;52.850;6.896;2023-06-14T08:10:41;7.65;;;2.30;;
59854;SDS011;45732;52.850;6.896;2023-06-14T08:13:07;4.50;;;1.90;;
59854;SDS011;45732;52.850;6.896;2023-06-14T08:15:34;5.00;;;1.80;;
59854;SDS011;45732;52.850;6.896;2023-06-14T08:18:00;5.47;;;2.00;;
59854;SDS011;45732;52.850;6.896;2023-06-14T08:20:26;10.18;;;2.30;;
59854;SDS011;45732;52.850;6.896;2023-06-14T08:22:52;5.85;;;1.98;;
59854;SDS011;45732;52.850;6.896;2023-06-14T08:25:21;4.65;;;2.10;;
59854;SDS011;45732;52.850;6.896;2023-06-14T08:27:47;5.68;;;1.95;;
59854;SDS011;45732;52.850;6.896;2023-06-14T08:30:13;6.28;;;2.15;;
59854;SDS011;45732;52.850;6.896;2023-06-14T08:32:39;5.88;;;2.20;;
59854;SDS011;45732;52.850;6.896;2023-06-14T08:35:05;4.57;;;1.98;;
59854;SDS011;45732;52.850;6.896;2023-06-14T08:37:32;4.75;;;2.30;;
59854;SDS011;45732;52.850;6.896;2023-06-14T08:40:02;4.88;;;2.15;;
59854;SDS011;45732;52.850;6.896;2023-06-14T08:42:30;8.80;;;1.80;;
59854;SDS011;45732;52.850;6.896;2023-06-14T08:44:57;7.00;;;1.85;;
59854;SDS011;45732;52.850;6.896;2023-06-14T08:47:25;4.47;;;1.77;;
59854;SDS011;45732;52.850;6.896;2023-06-14T08:49:54;5.00;;;1.85;;
59854;SDS011;45732;52.850;6.896;2023-06-14T08:52:22;7.50;;;1.90;;
59854;SDS011;45732;52.850;6.896;2023-06-14T08:57:21;4.32;;;1.80;;
59854;SDS011;45732;52.850;6.896;2023-06-14T08:59:47;4.72;;;1.73;;
59854;SDS011;45732;52.850;6.896;2023-06-14T09:02:18;4.43;;;1.60;;
59854;SDS011;45732;52.850;6.896;2023-06-14T09:04:44;8.32;;;1.75;;
59854;SDS011;45732;52.850;6.896;2023-06-14T09:07:11;5.05;;;1.70;;
59854;SDS011;45732;52.850;6.896;2023-06-14T09:09:38;5.10;;;1.95;;
59854;SDS011;45732;52.850;6.896;2023-06-14T09:12:10;10.52;;;2.30;;
59854;SDS011;45732;52.850;6.896;2023-06-14T09:14:37;6.20;;;1.60;;
59854;SDS011;45732;52.850;6.896;2023-06-14T09:17:05;9.50;;;1.60;;
59854;SDS011;45732;52.850;6.896;2023-06-14T09:19:31;6.78;;;1.83;;
59854;SDS011;45732;52.850;6.896;2023-06-14T09:21:57;3.90;;;1.63;;
59854;SDS011;45732;52.850;6.896;2023-06-14T09:24:23;4.65;;;1.90;;
59854;SDS011;45732;52.850;6.896;2023-06-14T09:26:51;3.45;;;1.73;;
59854;SDS011;45732;52.850;6.896;2023-06-14T09:29:17;6.93;;;2.03;;
59854;SDS011;45732;52.850;6.896;2023-06-14T09:31:45;8.10;;;1.90;;
59854;SDS011;45732;52.850;6.896;2023-06-14T09:34:12;7.55;;;1.95;;
59854;SDS011;45732;52.850;6.896;2023-06-14T09:36:38;4.28;;;1.80;;
59854;SDS011;45732;52.850;6.896;2023-06-14T09:39:05;4.13;;;1.70;;
59854;SDS011;45732;52.850;6.896;2023-06-14T09:41:33;3.97;;;1.67;;
59854;SDS011;45732;52.850;6.896;2023-06-14T09:44:05;5.03;;;1.60;;
59854;SDS011;45732;52.850;6.896;2023-06-14T09:46:32;2.83;;;1.63;;
59854;SDS011;45732;52.850;6.896;2023-06-14T09:48:58;3.85;;;1.80;;
59854;SDS011;45732;52.850;6.896;2023-06-14T09:51:25;3.65;;;1.73;;
59854;SDS011;45732;52.850;6.896;2023-06-14T09:53:52;5.97;;;2.13;;
59854;SDS011;45732;52.850;6.896;2023-06-14T09:56:32;5.68;;;1.70;;
59854;SDS011;45732;52.850;6.896;2023-06-14T09:59:10;4.35;;;1.52;;
59854;SDS011;45732;52.850;6.896;2023-06-14T10:01:41;4.95;;;1.48;;
59854;SDS011;45732;52.850;6.896;2023-06-14T10:04:07;5.10;;;1.60;;
59854;SDS011;45732;52.850;6.896;2023-06-14T10:06:45;2.40;;;1.70;;
59854;SDS011;45732;52.850;6.896;2023-06-14T10:09:11;10.48;;;1.73;;
59854;SDS011;45732;52.850;6.896;2023-06-14T10:11:38;2.90;;;1.50;;
59854;SDS011;45732;52.850;6.896;2023-06-14T10:14:09;3.47;;;1.77;;
59854;SDS011;45732;52.850;6.896;2023-06-14T10:16:42;4.28;;;1.80;;
59854;SDS011;45732;52.850;6.896;2023-06-14T10:22:02;6.50;;;1.60;;
59854;SDS011;45732;52.850;6.896;2023-06-14T10:24:43;5.88;;;1.80;;
59854;SDS011;45732;52.850;6.896;2023-06-14T10:27:10;4.07;;;1.60;;
59854;SDS011;45732;52.850;6.896;2023-06-14T10:32:22;8.95;;;1.95;;
59854;SDS011;45732;52.850;6.896;2023-06-14T10:34:56;7.70;;;1.77;;
59854;SDS011;45732;52.850;6.896;2023-06-14T10:37:34;5.05;;;1.80;;
59854;SDS011;45732;52.850;6.896;2023-06-14T10:40:00;5.70;;;1.45;;
59854;SDS011;45732;52.850;6.896;2023-06-14T10:42:27;5.72;;;1.70;;
59854;SDS011;45732;52.850;6.896;2023-06-14T10:44:57;11.30;;;1.77;;
59854;SDS011;45732;52.850;6.896;2023-06-14T10:47:30;3.95;;;1.65;;
59854;SDS011;45732;52.850;6.896;2023-06-14T10:50:02;2.67;;;1.40;;
59854;SDS011;45732;52.850;6.896;2023-06-14T10:52:29;5.95;;;1.85;;
59854;SDS011;45732;52.850;6.896;2023-06-14T10:57:35;3.25;;;1.40;;
59854;SDS011;45732;52.850;6.896;2023-06-14T11:00:02;4.20;;;1.58;;
59854;SDS011;45732;52.850;6.896;2023-06-14T11:05:56;3.15;;;1.50;;
59854;SDS011;45732;52.850;6.896;2023-06-14T11:11:07;5.13;;;1.70;;
59854;SDS011;45732;52.850;6.896;2023-06-14T11:13:36;9.13;;;1.83;;
59854;SDS011;45732;52.850;6.896;2023-06-14T11:16:03;13.35;;;1.95;;
59854;SDS011;45732;52.850;6.896;2023-06-14T11:18:36;79.20;;;10.20;;
59854;SDS011;45732;52.850;6.896;2023-06-14T11:21:02;5.97;;;1.90;;
59854;SDS011;45732;52.850;6.896;2023-06-14T11:23:28;5.20;;;1.48;;
59854;SDS011;45732;52.850;6.896;2023-06-14T11:25:54;3.97;;;1.60;;
59854;SDS011;45732;52.850;6.896;2023-06-14T11:28:20;5.93;;;1.70;;
59854;SDS011;45732;52.850;6.896;2023-06-14T11:30:47;8.88;;;1.70;;
59854;SDS011;45732;52.850;6.896;2023-06-14T11:33:16;4.60;;;1.50;;
59854;SDS011;45732;52.850;6.896;2023-06-14T11:35:45;3.35;;;1.50;;
59854;SDS011;45732;52.850;6.896;2023-06-14T11:38:11;4.60;;;1.40;;
59854;SDS011;45732;52.850;6.896;2023-06-14T11:40:38;5.10;;;1.50;;
59854;SDS011;45732;52.850;6.896;2023-06-14T11:43:04;6.63;;;1.48;;
59854;SDS011;45732;52.850;6.896;2023-06-14T11:45:30;6.43;;;1.52;;
59854;SDS011;45732;52.850;6.896;2023-06-14T11:47:56;5.88;;;1.52;;
59854;SDS011;45732;52.850;6.896;2023-06-14T11:50:25;3.60;;;1.50;;
59854;SDS011;45732;52.850;6.896;2023-06-14T11:52:55;4.03;;;1.50;;
59854;SDS011;45732;52.850;6.896;2023-06-14T11:55:22;4.22;;;1.65;;
59854;SDS011;45732;52.850;6.896;2023-06-14T11:57:49;9.70;;;1.75;;
59854;SDS011;45732;52.850;6.896;2023-06-14T12:00:15;5.28;;;1.83;;
59854;SDS011;45732;52.850;6.896;2023-06-14T12:02:41;3.20;;;1.40;;
59854;SDS011;45732;52.850;6.896;2023-06-14T12:05:08;5.57;;;1.65;;
59854;SDS011;45732;52.850;6.896;2023-06-14T12:07:37;4.45;;;1.50;;
59854;SDS011;45732;52.850;6.896;2023-06-14T12:10:05;2.65;;;1.63;;
59854;SDS011;45732;52.850;6.896;2023-06-14T12:12:36;3.33;;;1.45;;
59854;SDS011;45732;52.850;6.896;2023-06-14T12:15:04;3.53;;;1.30;;
59854;SDS011;45732;52.850;6.896;2023-06-14T12:17:31;3.42;;;1.70;;
59854;SDS011;45732;52.850;6.896;2023-06-14T12:20:05;5.15;;;1.50;;
59854;SDS011;45732;52.850;6.896;2023-06-14T12:22:54;4.70;;;1.70;;
59854;SDS011;45732;52.850;6.896;2023-06-14T12:25:31;4.60;;;1.58;;
59854;SDS011;45732;52.850;6.896;2023-06-14T12:27:59;4.47;;;1.50;;
59854;SDS011;45732;52.850;6.896;2023-06-14T12:30:35;5.28;;;1.80;;
59854;SDS011;45732;52.850;6.896;2023-06-14T12:33:04;6.13;;;1.80;;
59854;SDS011;45732;52.850;6.896;2023-06-14T12:35:31;5.07;;;1.73;;
59854;SDS011;45732;52.850;6.896;2023-06-14T12:37:56;3.78;;;1.58;;
59854;SDS011;45732;52.850;6.896;2023-06-14T12:40:22;3.97;;;1.63;;
59854;SDS011;45732;52.850;6.896;2023-06-14T12:42:48;3.60;;;1.70;;
59854;SDS011;45732;52.850;6.896;2023-06-14T12:45:14;6.55;;;1.50;;
59854;SDS011;45732;52.850;6.896;2023-06-14T12:47:40;3.40;;;1.50;;
59854;SDS011;45732;52.850;6.896;2023-06-14T12:50:06;4.82;;;1.50;;
59854;SDS011;45732;52.850;6.896;2023-06-14T12:52:32;5.45;;;1.48;;
59854;SDS011;45732;52.850;6.896;2023-06-14T12:55:01;2.40;;;1.40;;
59854;SDS011;45732;52.850;6.896;2023-06-14T12:57:30;3.13;;;1.35;;
59854;SDS011;45732;52.850;6.896;2023-06-14T12:59:56;4.80;;;1.65;;
59854;SDS011;45732;52.850;6.896;2023-06-14T13:02:22;4.75;;;1.77;;
59854;SDS011;45732;52.850;6.896;2023-06-14T13:04:49;4.82;;;1.73;;
59854;SDS011;45732;52.850;6.896;2023-06-14T13:07:15;5.05;;;1.40;;
59854;SDS011;45732;52.850;6.896;2023-06-14T13:09:41;3.00;;;1.45;;
59854;SDS011;45732;52.850;6.896;2023-06-14T13:12:08;3.38;;;1.60;;
59854;SDS011;45732;52.850;6.896;2023-06-14T13:14:36;4.75;;;1.70;;
59854;SDS011;45732;52.850;6.896;2023-06-14T13:17:02;5.32;;;1.80;;
59854;SDS011;45732;52.850;6.896;2023-06-14T13:19:28;3.58;;;1.75;;
59854;SDS011;45732;52.850;6.896;2023-06-14T13:21:54;5.38;;;1.77;;
59854;SDS011;45732;52.850;6.896;2023-06-14T13:24:19;6.45;;;1.50;;
59854;SDS011;45732;52.850;6.896;2023-06-14T13:26:45;4.35;;;1.60;;
59854;SDS011;45732;52.850;6.896;2023-06-14T13:29:11;4.65;;;1.40;;
59854;SDS011;45732;52.850;6.896;2023-06-14T13:31:36;4.93;;;1.88;;
59854;SDS011;45732;52.850;6.896;2023-06-14T13:34:02;4.07;;;1.70;;
59854;SDS011;45732;52.850;6.896;2023-06-14T13:36:29;6.45;;;1.55;;
59854;SDS011;45732;52.850;6.896;2023-06-14T13:38:55;5.53;;;1.70;;
59854;SDS011;45732;52.850;6.896;2023-06-14T13:41:21;6.07;;;1.63;;
59854;SDS011;45732;52.850;6.896;2023-06-14T13:43:46;4.10;;;1.50;;
59854;SDS011;45732;52.850;6.896;2023-06-14T13:46:12;2.33;;;1.50;;
59854;SDS011;45732;52.850;6.896;2023-06-14T13:48:38;4.63;;;1.85;;
59854;SDS011;45732;52.850;6.896;2023-06-14T13:51:04;3.22;;;1.60;;
59854;SDS011;45732;52.850;6.896;2023-06-14T13:53:29;5.35;;;1.92;;
59854;SDS011;45732;52.850;6.896;2023-06-14T13:55:56;4.72;;;1.65;;
59854;SDS011;45732;52.850;6.896;2023-06-14T13:58:21;3.30;;;1.60;;
59854;SDS011;45732;52.850;6.896;2023-06-14T14:00:49;2.45;;;1.63;;
59854;SDS011;45732;52.850;6.896;2023-06-14T14:03:14;4.18;;;1.70;;
59854;SDS011;45732;52.850;6.896;2023-06-14T14:05:40;4.95;;;1.55;;
59854;SDS011;45732;52.850;6.896;2023-06-14T14:08:06;4.47;;;1.70;;
59854;SDS011;45732;52.850;6.896;2023-06-14T14:10:32;6.10;;;1.67;;
59854;SDS011;45732;52.850;6.896;2023-06-14T14:12:58;3.95;;;1.65;;
59854;SDS011;45732;52.850;6.896;2023-06-14T14:15:24;3.53;;;1.55;;
59854;SDS011;45732;52.850;6.896;2023-06-14T14:17:50;5.05;;;1.70;;
59854;SDS011;45732;52.850;6.896;2023-06-14T14:20:16;5.82;;;1.70;;
59854;SDS011;45732;52.850;6.896;2023-06-14T14:22:42;3.83;;;1.80;;
59854;SDS011;45732;52.850;6.896;2023-06-14T14:25:08;4.05;;;2.28;;
59854;SDS011;45732;52.850;6.896;2023-06-14T14:27:35;4.78;;;1.70;;
59854;SDS011;45732;52.850;6.896;2023-06-14T14:30:02;3.90;;;1.92;;
59854;SDS011;45732;52.850;6.896;2023-06-14T14:32:29;3.45;;;1.73;;
59854;SDS011;45732;52.850;6.896;2023-06-14T14:34:54;4.90;;;1.90;;
59854;SDS011;45732;52.850;6.896;2023-06-14T14:37:20;3.88;;;1.70;;
59854;SDS011;45732;52.850;6.896;2023-06-14T14:39:46;5.00;;;2.00;;
59854;SDS011;45732;52.850;6.896;2023-06-14T14:42:12;5.85;;;1.73;;
59854;SDS011;45732;52.850;6.896;2023-06-14T14:44:38;5.80;;;2.40;;
59854;SDS011;45732;52.850;6.896;2023-06-14T14:47:04;2.78;;;1.60;;
59854;SDS011;45732;52.850;6.896;2023-06-14T14:49:31;5.40;;;1.77;;
59854;SDS011;45732;52.850;6.896;2023-06-14T14:51:57;4.32;;;1.90;;
59854;SDS011;45732;52.850;6.896;2023-06-14T14:54:22;4.07;;;1.80;;
59854;SDS011;45732;52.850;6.896;2023-06-14T14:56:50;5.78;;;2.08;;
59854;SDS011;45732;52.850;6.896;2023-06-14T14:59:15;3.92;;;1.73;;
59854;SDS011;45732;52.850;6.896;2023-06-14T15:01:42;3.08;;;1.85;;
59854;SDS011;45732;52.850;6.896;2023-06-14T15:04:08;5.00;;;1.70;;
59854;SDS011;45732;52.850;6.896;2023-06-14T15:06:33;2.78;;;1.70;;
59854;SDS011;45732;52.850;6.896;2023-06-14T15:11:31;5.07;;;1.90;;
59854;SDS011;45732;52.850;6.896;2023-06-14T15:13:57;5.13;;;2.00;;
59854;SDS011;45732;52.850;6.896;2023-06-14T15:16:23;4.57;;;1.77;;
59854;SDS011;45732;52.850;6.896;2023-06-14T15:18:49;4.30;;;1.90;;
59854;SDS011;45732;52.850;6.896;2023-06-14T15:21:14;6.55;;;2.20;;
59854;SDS011;45732;52.850;6.896;2023-06-14T15:23:40;4.10;;;2.08;;
59854;SDS011;45732;52.850;6.896;2023-06-14T15:26:06;4.03;;;1.90;;
59854;SDS011;45732;52.850;6.896;2023-06-14T15:28:31;5.43;;;2.10;;
59854;SDS011;45732;52.850;6.896;2023-06-14T15:31:00;5.13;;;2.13;;
59854;SDS011;45732;52.850;6.896;2023-06-14T15:33:26;3.50;;;1.98;;
59854;SDS011;45732;52.850;6.896;2023-06-14T15:35:52;6.07;;;2.50;;
59854;SDS011;45732;52.850;6.896;2023-06-14T15:38:17;5.45;;;2.10;;
59854;SDS011;45732;52.850;6.896;2023-06-14T15:40:45;9.52;;;2.20;;
59854;SDS011;45732;52.850;6.896;2023-06-14T15:43:11;4.40;;;2.25;;
59854;SDS011;45732;52.850;6.896;2023-06-14T15:45:36;6.47;;;2.30;;
59854;SDS011;45732;52.850;6.896;2023-06-14T15:48:02;6.30;;;2.60;;
59854;SDS011;45732;52.850;6.896;2023-06-14T15:50:28;5.05;;;2.10;;
59854;SDS011;45732;52.850;6.896;2023-06-14T15:52:54;6.90;;;2.47;;
59854;SDS011;45732;52.850;6.896;2023-06-14T15:55:20;10.00;;;2.33;;
59854;SDS011;45732;52.850;6.896;2023-06-14T15:57:45;6.20;;;2.42;;
59854;SDS011;45732;52.850;6.896;2023-06-14T16:00:11;6.85;;;2.30;;
59854;SDS011;45732;52.850;6.896;2023-06-14T16:02:37;6.82;;;2.20;;
59854;SDS011;45732;52.850;6.896;2023-06-14T16:05:03;5.97;;;2.25;;
59854;SDS011;45732;52.850;6.896;2023-06-14T16:07:29;4.55;;;2.10;;
59854;SDS011;45732;52.850;6.896;2023-06-14T16:09:54;3.42;;;2.10;;
59854;SDS011;45732;52.850;6.896;2023-06-14T16:12:20;6.18;;;2.20;;
59854;SDS011;45732;52.850;6.896;2023-06-14T16:14:46;5.63;;;2.22;;
59854;SDS011;45732;52.850;6.896;2023-06-14T16:17:12;4.82;;;2.30;;
59854;SDS011;45732;52.850;6.896;2023-06-14T16:19:38;6.78;;;2.22;;
59854;SDS011;45732;52.850;6.896;2023-06-14T16:22:04;6.90;;;2.13;;
59854;SDS011;45732;52.850;6.896;2023-06-14T16:24:30;5.78;;;2.58;;
59854;SDS011;45732;52.850;6.896;2023-06-14T16:26:56;4.53;;;2.17;;
59854;SDS011;45732;52.850;6.896;2023-06-14T16:29:22;4.75;;;2.28;;
59854;SDS011;45732;52.850;6.896;2023-06-14T16:31:48;8.45;;;2.58;;
59854;SDS011;45732;52.850;6.896;2023-06-14T16:34:13;9.65;;;2.75;;
59854;SDS011;45732;52.850;6.896;2023-06-14T16:36:40;10.32;;;2.70;;
59854;SDS011;45732;52.850;6.896;2023-06-14T16:39:07;4.38;;;2.17;;
59854;SDS011;45732;52.850;6.896;2023-06-14T16:41:33;6.00;;;2.30;;
59854;SDS011;45732;52.850;6.896;2023-06-14T16:43:59;4.75;;;2.30;;
59854;SDS011;45732;52.850;6.896;2023-06-14T16:46:32;6.40;;;2.40;;
59854;SDS011;45732;52.850;6.896;2023-06-14T16:48:58;5.13;;;2.47;;
59854;SDS011;45732;52.850;6.896;2023-06-14T16:51:24;8.02;;;2.40;;
59854;SDS011;45732;52.850;6.896;2023-06-14T16:53:51;5.68;;;2.42;;
59854;SDS011;45732;52.850;6.896;2023-06-14T16:56:17;4.95;;;2.30;;
59854;SDS011;45732;52.850;6.896;2023-06-14T16:58:44;6.38;;;2.22;;
59854;SDS011;45732;52.850;6.896;2023-06-14T17:01:10;4.03;;;2.10;;
59854;SDS011;45732;52.850;6.896;2023-06-14T17:03:37;37.17;;;4.97;;
59854;SDS011;45732;52.850;6.896;2023-06-14T17:06:03;13.75;;;3.35;;
59854;SDS011;45732;52.850;6.896;2023-06-14T17:08:31;6.47;;;2.42;;
59854;SDS011;45732;52.850;6.896;2023-06-14T17:10:57;8.50;;;2.60;;
59854;SDS011;45732;52.850;6.896;2023-06-14T17:13:24;5.70;;;2.35;;
59854;SDS011;45732;52.850;6.896;2023-06-14T17:15:50;5.55;;;2.45;;
59854;SDS011;45732;52.850;6.896;2023-06-14T17:18:16;6.85;;;2.50;;
59854;SDS011;45732;52.850;6.896;2023-06-14T17:20:42;7.05;;;2.50;;
59854;SDS011;45732;52.850;6.896;2023-06-14T17:23:08;8.50;;;2.15;;
59854;SDS011;45732;52.850;6.896;2023-06-14T17:25:33;8.88;;;2.33;;
59854;SDS011;45732;52.850;6.896;2023-06-14T17:27:59;6.97;;;2.50;;
59854;SDS011;45732;52.850;6.896;2023-06-14T17:30:25;11.13;;;2.58;;
59854;SDS011;45732;52.850;6.896;2023-06-14T17:32:54;9.82;;;2.65;;
59854;SDS011;45732;52.850;6.896;2023-06-14T17:35:19;6.90;;;2.30;;
59854;SDS011;45732;52.850;6.896;2023-06-14T17:37:45;5.68;;;2.40;;
59854;SDS011;45732;52.850;6.896;2023-06-14T17:40:11;4.75;;;2.35;;
59854;SDS011;45732;52.850;6.896;2023-06-14T17:42:36;5.00;;;2.65;;
59854;SDS011;45732;52.850;6.896;2023-06-14T17:45:02;5.68;;;2.40;;
59854;SDS011;45732;52.850;6.896;2023-06-14T17:47:28;6.20;;;2.35;;
59854;SDS011;45732;52.850;6.896;2023-06-14T17:49:54;5.40;;;2.80;;
59854;SDS011;45732;52.850;6.896;2023-06-14T17:52:20;7.07;;;2.40;;
59854;SDS011;45732;52.850;6.896;2023-06-14T17:54:46;4.70;;;2.45;;
59854;SDS011;45732;52.850;6.896;2023-06-14T17:57:12;6.53;;;3.08;;
59854;SDS011;45732;52.850;6.896;2023-06-14T17:59:39;5.13;;;2.58;;
59854;SDS011;45732;52.850;6.896;2023-06-14T18:02:06;7.25;;;2.80;;
59854;SDS011;45732;52.850;6.896;2023-06-14T18:04:32;5.00;;;2.50;;
59854;SDS011;45732;52.850;6.896;2023-06-14T18:06:58;5.70;;;2.65;;
59854;SDS011;45732;52.850;6.896;2023-06-14T18:09:27;5.45;;;2.90;;
59854;SDS011;45732;52.850;6.896;2023-06-14T18:11:53;4.90;;;2.40;;
59854;SDS011;45732;52.850;6.896;2023-06-14T18:14:19;5.95;;;2.65;;
59854;SDS011;45732;52.850;6.896;2023-06-14T18:16:45;5.30;;;2.65;;
59854;SDS011;45732;52.850;6.896;2023-06-14T18:19:10;10.30;;;2.70;;
59854;SDS011;45732;52.850;6.896;2023-06-14T18:21:41;5.43;;;2.40;;
59854;SDS011;45732;52.850;6.896;2023-06-14T18:24:16;4.75;;;2.80;;
59854;SDS011;45732;52.850;6.896;2023-06-14T18:26:42;6.78;;;2.80;;
59854;SDS011;45732;52.850;6.896;2023-06-14T18:29:07;4.53;;;2.67;;
59854;SDS011;45732;52.850;6.896;2023-06-14T18:31:33;5.88;;;2.53;;
59854;SDS011;45732;52.850;6.896;2023-06-14T18:33:59;7.15;;;2.63;;
59854;SDS011;45732;52.850;6.896;2023-06-14T18:36:25;4.93;;;2.40;;
59854;SDS011;45732;52.850;6.896;2023-06-14T18:38:51;5.63;;;2.60;;
59854;SDS011;45732;52.850;6.896;2023-06-14T18:41:17;6.40;;;2.60;;
59854;SDS011;45732;52.850;6.896;2023-06-14T18:43:42;4.97;;;2.70;;
59854;SDS011;45732;52.850;6.896;2023-06-14T18:46:11;9.68;;;2.90;;
59854;SDS011;45732;52.850;6.896;2023-06-14T18:48:38;4.40;;;2.55;;
59854;SDS011;45732;52.850;6.896;2023-06-14T18:51:03;6.82;;;2.78;;
59854;SDS011;45732;52.850;6.896;2023-06-14T18:53:29;5.95;;;2.70;;
59854;SDS011;45732;52.850;6.896;2023-06-14T18:55:55;10.02;;;2.80;;
59854;SDS011;45732;52.850;6.896;2023-06-14T18:58:21;5.82;;;2.67;;
59854;SDS011;45732;52.850;6.896;2023-06-14T19:00:47;8.15;;;2.90;;
59854;SDS011;45732;52.850;6.896;2023-06-14T19:03:13;7.03;;;3.05;;
59854;SDS011;45732;52.850;6.896;2023-06-14T19:05:39;7.40;;;2.78;;
59854;SDS011;45732;52.850;6.896;2023-06-14T19:08:05;6.63;;;2.70;;
59854;SDS011;45732;52.850;6.896;2023-06-14T19:10:31;5.78;;;2.75;;
59854;SDS011;45732;52.850;6.896;2023-06-14T19:12:57;7.88;;;2.70;;
59854;SDS011;45732;52.850;6.896;2023-06-14T19:15:23;6.15;;;2.50;;
59854;SDS011;45732;52.850;6.896;2023-06-14T19:17:56;6.47;;;2.85;;
59854;SDS011;45732;52.850;6.896;2023-06-14T19:20:24;10.23;;;3.10;;
59854;SDS011;45732;52.850;6.896;2023-06-14T19:22:51;5.10;;;2.55;;
59854;SDS011;45732;52.850;6.896;2023-06-14T19:25:17;9.55;;;3.00;;
59854;SDS011;45732;52.850;6.896;2023-06-14T19:27:43;7.40;;;2.40;;
59854;SDS011;45732;52.850;6.896;2023-06-14T19:30:10;8.55;;;2.60;;
59854;SDS011;45732;52.850;6.896;2023-06-14T19:32:37;8.60;;;2.90;;